sensor_id;sensor_type;location;lat;lon;timestamp;pressure;altitude;pressure_sealevel;temperature
67353;BMP180;54238;52.278;21.056;2022-09-24T00:01:35;100575.80;;;11.08
67353;BMP180;54238;52.278;21.056;2022-09-24T00:04:09;100573.60;;;11.00
67353;BMP180;54238;52.278;21.056;2022-09-24T00:06:47;100574.60;;;11.00
67353;BMP180;54238;52.278;21.056;2022-09-24T00:09:21;100572.20;;;11.00
67353;BMP180;54238;52.278;21.056;2022-09-24T00:11:50;100570.40;;;10.98
67353;BMP180;54238;52.278;21.056;2022-09-24T00:14:19;100567.00;;;10.94
67353;BMP180;54238;52.278;21.056;2022-09-24T00:16:46;100567.60;;;10.90
67353;BMP180;54238;52.278;21.056;2022-09-24T00:19:20;100564.80;;;10.90
67353;BMP180;54238;52.278;21.056;2022-09-24T00:21:49;100563.00;;;10.82
67353;BMP180;54238;52.278;21.056;2022-09-24T00:24:19;100565.40;;;10.80
67353;BMP180;54238;52.278;21.056;2022-09-24T00:27:05;100563.00;;;10.80
67353;BMP180;54238;52.278;21.056;2022-09-24T00:29:35;100559.60;;;10.70
67353;BMP180;54238;52.278;21.056;2022-09-24T00:32:06;100555.60;;;10.70
67353;BMP180;54238;52.278;21.056;2022-09-24T00:34:38;100555.40;;;10.60
67353;BMP180;54238;52.278;21.056;2022-09-24T00:37:09;100554.20;;;10.60
67353;BMP180;54238;52.278;21.056;2022-09-24T00:39:36;100551.60;;;10.50
67353;BMP180;54238;52.278;21.056;2022-09-24T00:42:11;100553.00;;;10.50
67353;BMP180;54238;52.278;21.056;2022-09-24T00:50:31;100544.40;;;10.40
67353;BMP180;54238;52.278;21.056;2022-09-24T00:53:09;100545.60;;;10.38
67353;BMP180;54238;52.278;21.056;2022-09-24T00:55:45;100546.40;;;10.32
67353;BMP180;54238;52.278;21.056;2022-09-24T00:58:16;100543.80;;;10.30
67353;BMP180;54238;52.278;21.056;2022-09-24T01:00:43;100541.60;;;10.30
67353;BMP180;54238;52.278;21.056;2022-09-24T01:03:21;100543.40;;;10.30
67353;BMP180;54238;52.278;21.056;2022-09-24T01:05:57;100544.20;;;10.30
67353;BMP180;54238;52.278;21.056;2022-09-24T01:08:29;100540.40;;;10.30
67353;BMP180;54238;52.278;21.056;2022-09-24T01:22:19;100530.00;;;10.28
67353;BMP180;54238;52.278;21.056;2022-09-24T01:25:00;100528.00;;;10.20
67353;BMP180;54238;52.278;21.056;2022-09-24T01:30:25;100531.20;;;10.10
67353;BMP180;54238;52.278;21.056;2022-09-24T01:33:05;100526.60;;;10.10
67353;BMP180;54238;52.278;21.056;2022-09-24T01:35:46;100523.40;;;10.00
67353;BMP180;54238;52.278;21.056;2022-09-24T01:38:22;100522.40;;;9.92
67353;BMP180;54238;52.278;21.056;2022-09-24T01:40:56;100519.60;;;9.90
67353;BMP180;54238;52.278;21.056;2022-09-24T01:43:27;100514.40;;;9.90
67353;BMP180;54238;52.278;21.056;2022-09-24T01:45:58;100516.80;;;9.90
67353;BMP180;54238;52.278;21.056;2022-09-24T01:48:29;100519.00;;;9.86
67353;BMP180;54238;52.278;21.056;2022-09-24T01:51:13;100521.00;;;9.90
67353;BMP180;54238;52.278;21.056;2022-09-24T01:54:04;100516.40;;;9.84
67353;BMP180;54238;52.278;21.056;2022-09-24T01:56:54;100518.80;;;9.80
67353;BMP180;54238;52.278;21.056;2022-09-24T01:59:55;100517.40;;;9.80
67353;BMP180;54238;52.278;21.056;2022-09-24T02:02:37;100512.40;;;9.78
67353;BMP180;54238;52.278;21.056;2022-09-24T02:05:11;100515.20;;;9.70
67353;BMP180;54238;52.278;21.056;2022-09-24T02:07:46;100514.80;;;9.70
67353;BMP180;54238;52.278;21.056;2022-09-24T02:10:24;100514.80;;;9.70
67353;BMP180;54238;52.278;21.056;2022-09-24T02:13:01;100513.00;;;9.60
67353;BMP180;54238;52.278;21.056;2022-09-24T02:15:33;100508.40;;;9.60
67353;BMP180;54238;52.278;21.056;2022-09-24T02:18:10;100508.40;;;9.60
67353;BMP180;54238;52.278;21.056;2022-09-24T02:20:46;100512.60;;;9.60
67353;BMP180;54238;52.278;21.056;2022-09-24T02:23:18;100511.00;;;9.60
67353;BMP180;54238;52.278;21.056;2022-09-24T02:25:55;100510.20;;;9.60
67353;BMP180;54238;52.278;21.056;2022-09-24T02:28:27;100508.40;;;9.60
67353;BMP180;54238;52.278;21.056;2022-09-24T02:31:06;100510.80;;;9.58
67353;BMP180;54238;52.278;21.056;2022-09-24T02:33:44;100514.00;;;9.50
67353;BMP180;54238;52.278;21.056;2022-09-24T02:36:31;100517.40;;;9.44
67353;BMP180;54238;52.278;21.056;2022-09-24T02:39:03;100517.40;;;9.40
67353;BMP180;54238;52.278;21.056;2022-09-24T02:41:35;100513.40;;;9.40
67353;BMP180;54238;52.278;21.056;2022-09-24T02:44:05;100511.60;;;9.40
67353;BMP180;54238;52.278;21.056;2022-09-24T02:46:36;100507.00;;;9.40
67353;BMP180;54238;52.278;21.056;2022-09-24T02:49:10;100508.20;;;9.40
67353;BMP180;54238;52.278;21.056;2022-09-24T02:51:43;100507.80;;;9.40
67353;BMP180;54238;52.278;21.056;2022-09-24T02:54:15;100507.80;;;9.40
67353;BMP180;54238;52.278;21.056;2022-09-24T02:56:47;100503.80;;;9.34
67353;BMP180;54238;52.278;21.056;2022-09-24T02:59:14;100504.20;;;9.30
67353;BMP180;54238;52.278;21.056;2022-09-24T03:01:41;100505.20;;;9.30
67353;BMP180;54238;52.278;21.056;2022-09-24T03:04:11;100504.40;;;9.30
67353;BMP180;54238;52.278;21.056;2022-09-24T03:06:41;100500.00;;;9.30
67353;BMP180;54238;52.278;21.056;2022-09-24T03:09:13;100499.80;;;9.30
67353;BMP180;54238;52.278;21.056;2022-09-24T03:11:41;100506.80;;;9.30
67353;BMP180;54238;52.278;21.056;2022-09-24T03:14:07;100498.60;;;9.30
67353;BMP180;54238;52.278;21.056;2022-09-24T03:16:39;100499.20;;;9.30
67353;BMP180;54238;52.278;21.056;2022-09-24T03:19:07;100497.60;;;9.30
67353;BMP180;54238;52.278;21.056;2022-09-24T03:21:39;100495.00;;;9.30
67353;BMP180;54238;52.278;21.056;2022-09-24T03:24:08;100495.80;;;9.30
67353;BMP180;54238;52.278;21.056;2022-09-24T03:29:41;100491.40;;;9.20
67353;BMP180;54238;52.278;21.056;2022-09-24T03:32:29;100487.60;;;9.10
67353;BMP180;54238;52.278;21.056;2022-09-24T03:35:01;100484.00;;;9.00
67353;BMP180;54238;52.278;21.056;2022-09-24T03:37:29;100488.40;;;8.90
67353;BMP180;54238;52.278;21.056;2022-09-24T03:39:56;100486.20;;;8.90
67353;BMP180;54238;52.278;21.056;2022-09-24T03:42:26;100489.00;;;8.80
67353;BMP180;54238;52.278;21.056;2022-09-24T03:44:56;100490.00;;;8.74
67353;BMP180;54238;52.278;21.056;2022-09-24T03:47:32;100484.60;;;8.68
67353;BMP180;54238;52.278;21.056;2022-09-24T03:50:02;100490.80;;;8.60
67353;BMP180;54238;52.278;21.056;2022-09-24T03:55:25;100487.40;;;8.56
67353;BMP180;54238;52.278;21.056;2022-09-24T03:57:55;100486.00;;;8.50
67353;BMP180;54238;52.278;21.056;2022-09-24T04:00:29;100489.80;;;8.50
67353;BMP180;54238;52.278;21.056;2022-09-24T04:02:56;100488.60;;;8.50
67353;BMP180;54238;52.278;21.056;2022-09-24T04:05:22;100492.20;;;8.50
67353;BMP180;54238;52.278;21.056;2022-09-24T04:08:00;100491.40;;;8.50
67353;BMP180;54238;52.278;21.056;2022-09-24T04:10:30;100491.20;;;8.50
67353;BMP180;54238;52.278;21.056;2022-09-24T04:12:59;100491.60;;;8.50
67353;BMP180;54238;52.278;21.056;2022-09-24T04:15:40;100488.40;;;8.40
67353;BMP180;54238;52.278;21.056;2022-09-24T04:18:10;100490.00;;;8.40
67353;BMP180;54238;52.278;21.056;2022-09-24T04:20:39;100488.40;;;8.40
67353;BMP180;54238;52.278;21.056;2022-09-24T04:23:10;100487.00;;;8.50
67353;BMP180;54238;52.278;21.056;2022-09-24T04:25:38;100487.00;;;8.56
67353;BMP180;54238;52.278;21.056;2022-09-24T04:28:09;100481.80;;;8.60
67353;BMP180;54238;52.278;21.056;2022-09-24T04:30:41;100481.60;;;8.70
67353;BMP180;54238;52.278;21.056;2022-09-24T04:33:08;100484.00;;;8.70
67353;BMP180;54238;52.278;21.056;2022-09-24T04:35:37;100484.00;;;8.70
67353;BMP180;54238;52.278;21.056;2022-09-24T04:38:05;100484.40;;;8.70
67353;BMP180;54238;52.278;21.056;2022-09-24T04:40:32;100485.20;;;8.62
67353;BMP180;54238;52.278;21.056;2022-09-24T04:42:59;100482.20;;;8.60
67353;BMP180;54238;52.278;21.056;2022-09-24T04:45:33;100486.20;;;8.50
67353;BMP180;54238;52.278;21.056;2022-09-24T04:48:03;100488.20;;;8.46
67353;BMP180;54238;52.278;21.056;2022-09-24T04:50:32;100486.20;;;8.40
67353;BMP180;54238;52.278;21.056;2022-09-24T04:53:02;100486.40;;;8.40
67353;BMP180;54238;52.278;21.056;2022-09-24T04:55:29;100487.60;;;8.30
67353;BMP180;54238;52.278;21.056;2022-09-24T04:57:58;100488.80;;;8.30
67353;BMP180;54238;52.278;21.056;2022-09-24T05:00:25;100491.20;;;8.30
67353;BMP180;54238;52.278;21.056;2022-09-24T05:03:00;100496.60;;;8.20
67353;BMP180;54238;52.278;21.056;2022-09-24T05:05:32;100494.20;;;8.20
67353;BMP180;54238;52.278;21.056;2022-09-24T05:08:00;100492.20;;;8.20
67353;BMP180;54238;52.278;21.056;2022-09-24T05:10:31;100495.40;;;8.22
67353;BMP180;54238;52.278;21.056;2022-09-24T05:13:02;100494.60;;;8.20
67353;BMP180;54238;52.278;21.056;2022-09-24T05:15:34;100498.40;;;8.26
67353;BMP180;54238;52.278;21.056;2022-09-24T05:18:01;100497.80;;;8.20
67353;BMP180;54238;52.278;21.056;2022-09-24T05:20:28;100500.60;;;8.24
67353;BMP180;54238;52.278;21.056;2022-09-24T05:22:55;100502.00;;;8.30
67353;BMP180;54238;52.278;21.056;2022-09-24T05:25:22;100497.20;;;8.30
67353;BMP180;54238;52.278;21.056;2022-09-24T05:27:54;100498.80;;;8.40
67353;BMP180;54238;52.278;21.056;2022-09-24T05:30:33;100499.00;;;8.40
67353;BMP180;54238;52.278;21.056;2022-09-24T05:33:00;100500.20;;;8.50
67353;BMP180;54238;52.278;21.056;2022-09-24T05:35:27;100498.60;;;8.50
67353;BMP180;54238;52.278;21.056;2022-09-24T05:37:54;100497.20;;;8.50
67353;BMP180;54238;52.278;21.056;2022-09-24T05:40:24;100497.20;;;8.64
67353;BMP180;54238;52.278;21.056;2022-09-24T05:43:15;100491.00;;;8.70
67353;BMP180;54238;52.278;21.056;2022-09-24T05:45:45;100495.80;;;8.82
67353;BMP180;54238;52.278;21.056;2022-09-24T05:48:12;100492.00;;;8.82
67353;BMP180;54238;52.278;21.056;2022-09-24T05:50:43;100491.60;;;8.80
67353;BMP180;54238;52.278;21.056;2022-09-24T05:53:13;100491.80;;;8.80
67353;BMP180;54238;52.278;21.056;2022-09-24T05:55:44;100496.40;;;8.80
67353;BMP180;54238;52.278;21.056;2022-09-24T05:58:12;100496.20;;;8.80
67353;BMP180;54238;52.278;21.056;2022-09-24T06:00:46;100501.00;;;8.90
67353;BMP180;54238;52.278;21.056;2022-09-24T06:03:17;100501.20;;;9.00
67353;BMP180;54238;52.278;21.056;2022-09-24T06:05:47;100495.80;;;9.10
67353;BMP180;54238;52.278;21.056;2022-09-24T06:08:22;100505.80;;;9.20
67353;BMP180;54238;52.278;21.056;2022-09-24T06:10:51;100508.60;;;9.30
67353;BMP180;54238;52.278;21.056;2022-09-24T06:13:21;100508.60;;;9.40
67353;BMP180;54238;52.278;21.056;2022-09-24T06:15:58;100509.40;;;9.50
67353;BMP180;54238;52.278;21.056;2022-09-24T06:18:27;100510.20;;;9.60
67353;BMP180;54238;52.278;21.056;2022-09-24T06:21:01;100510.40;;;9.60
67353;BMP180;54238;52.278;21.056;2022-09-24T06:23:34;100518.60;;;9.68
67353;BMP180;54238;52.278;21.056;2022-09-24T06:26:02;100521.40;;;9.70
67353;BMP180;54238;52.278;21.056;2022-09-24T06:28:30;100519.00;;;9.80
67353;BMP180;54238;52.278;21.056;2022-09-24T06:31:02;100513.80;;;9.90
67353;BMP180;54238;52.278;21.056;2022-09-24T06:33:34;100518.80;;;9.90
67353;BMP180;54238;52.278;21.056;2022-09-24T06:36:07;100517.20;;;10.02
67353;BMP180;54238;52.278;21.056;2022-09-24T06:38:34;100522.80;;;10.18
67353;BMP180;54238;52.278;21.056;2022-09-24T06:41:05;100526.80;;;10.30
67353;BMP180;54238;52.278;21.056;2022-09-24T06:43:37;100528.60;;;10.40
67353;BMP180;54238;52.278;21.056;2022-09-24T06:46:05;100529.00;;;10.50
67353;BMP180;54238;52.278;21.056;2022-09-24T06:48:34;100527.60;;;10.50
67353;BMP180;54238;52.278;21.056;2022-09-24T06:51:04;100529.60;;;10.66
67353;BMP180;54238;52.278;21.056;2022-09-24T06:53:36;100529.20;;;10.74
67353;BMP180;54238;52.278;21.056;2022-09-24T06:56:06;100531.80;;;10.90
67353;BMP180;54238;52.278;21.056;2022-09-24T06:58:38;100533.40;;;11.00
67353;BMP180;54238;52.278;21.056;2022-09-24T07:01:05;100534.60;;;11.10
67353;BMP180;54238;52.278;21.056;2022-09-24T07:03:36;100537.40;;;11.20
67353;BMP180;54238;52.278;21.056;2022-09-24T07:06:11;100538.20;;;11.32
67353;BMP180;54238;52.278;21.056;2022-09-24T07:08:40;100535.40;;;11.50
67353;BMP180;54238;52.278;21.056;2022-09-24T07:11:13;100536.00;;;11.60
67353;BMP180;54238;52.278;21.056;2022-09-24T07:13:43;100537.60;;;11.70
67353;BMP180;54238;52.278;21.056;2022-09-24T07:16:10;100537.40;;;11.90
67353;BMP180;54238;52.278;21.056;2022-09-24T07:18:47;100539.20;;;12.00
67353;BMP180;54238;52.278;21.056;2022-09-24T07:21:16;100541.40;;;12.10
67353;BMP180;54238;52.278;21.056;2022-09-24T07:23:43;100542.20;;;12.30
67353;BMP180;54238;52.278;21.056;2022-09-24T07:26:10;100541.40;;;12.50
67353;BMP180;54238;52.278;21.056;2022-09-24T07:28:37;100545.20;;;12.60
67353;BMP180;54238;52.278;21.056;2022-09-24T07:31:06;100545.60;;;12.70
67353;BMP180;54238;52.278;21.056;2022-09-24T07:33:34;100547.60;;;12.80
67353;BMP180;54238;52.278;21.056;2022-09-24T07:36:07;100550.20;;;13.00
67353;BMP180;54238;52.278;21.056;2022-09-24T07:38:36;100551.00;;;13.10
67353;BMP180;54238;52.278;21.056;2022-09-24T07:41:05;100549.00;;;13.20
67353;BMP180;54238;52.278;21.056;2022-09-24T07:43:34;100551.60;;;13.38
67353;BMP180;54238;52.278;21.056;2022-09-24T07:46:01;100551.60;;;13.50
67353;BMP180;54238;52.278;21.056;2022-09-24T07:48:31;100547.00;;;13.60
67353;BMP180;54238;52.278;21.056;2022-09-24T07:51:02;100544.20;;;13.66
67353;BMP180;54238;52.278;21.056;2022-09-24T07:53:33;100544.20;;;13.70
67353;BMP180;54238;52.278;21.056;2022-09-24T07:56:03;100539.00;;;13.80
67353;BMP180;54238;52.278;21.056;2022-09-24T07:58:30;100541.20;;;13.90
67353;BMP180;54238;52.278;21.056;2022-09-24T08:01:00;100541.20;;;14.06
67353;BMP180;54238;52.278;21.056;2022-09-24T08:03:29;100537.60;;;14.20
67353;BMP180;54238;52.278;21.056;2022-09-24T08:05:57;100534.80;;;14.30
67353;BMP180;54238;52.278;21.056;2022-09-24T08:08:27;100538.20;;;14.50
67353;BMP180;54238;52.278;21.056;2022-09-24T08:11:02;100543.60;;;14.64
67353;BMP180;54238;52.278;21.056;2022-09-24T08:13:30;100539.40;;;14.84
67353;BMP180;54238;52.278;21.056;2022-09-24T08:15:58;100544.80;;;15.06
67353;BMP180;54238;52.278;21.056;2022-09-24T08:18:31;100543.40;;;15.28
67353;BMP180;54238;52.278;21.056;2022-09-24T08:21:05;100542.40;;;15.50
67353;BMP180;54238;52.278;21.056;2022-09-24T08:23:35;100546.20;;;15.72
67353;BMP180;54238;52.278;21.056;2022-09-24T08:26:12;100547.60;;;16.00
67353;BMP180;54238;52.278;21.056;2022-09-24T08:28:40;100545.40;;;16.18
67353;BMP180;54238;52.278;21.056;2022-09-24T08:31:12;100546.00;;;16.46
67353;BMP180;54238;52.278;21.056;2022-09-24T08:33:44;100541.20;;;16.60
67353;BMP180;54238;52.278;21.056;2022-09-24T08:36:18;100545.20;;;16.80
67353;BMP180;54238;52.278;21.056;2022-09-24T08:38:54;100546.00;;;17.02
67353;BMP180;54238;52.278;21.056;2022-09-24T08:41:58;100547.40;;;17.30
67353;BMP180;54238;52.278;21.056;2022-09-24T08:44:38;100552.20;;;17.50
67353;BMP180;54238;52.278;21.056;2022-09-24T08:48:16;100549.40;;;17.76
67353;BMP180;54238;52.278;21.056;2022-09-24T08:50:59;100548.00;;;18.04
67353;BMP180;54238;52.278;21.056;2022-09-24T08:53:56;100552.00;;;18.30
67353;BMP180;54238;52.278;21.056;2022-09-24T08:56:36;100554.60;;;18.56
67353;BMP180;54238;52.278;21.056;2022-09-24T09:07:30;100554.40;;;18.94
67353;BMP180;54238;52.278;21.056;2022-09-24T09:10:35;100554.60;;;19.00
67353;BMP180;54238;52.278;21.056;2022-09-24T09:13:40;100547.40;;;19.30
67353;BMP180;54238;52.278;21.056;2022-09-24T09:19:14;100548.20;;;19.80
67353;BMP180;54238;52.278;21.056;2022-09-24T09:22:14;100551.40;;;20.20
67353;BMP180;54238;52.278;21.056;2022-09-24T09:24:53;100555.00;;;20.46
67353;BMP180;54238;52.278;21.056;2022-09-24T09:27:27;100553.20;;;20.64
67353;BMP180;54238;52.278;21.056;2022-09-24T09:30:03;100551.20;;;20.80
67353;BMP180;54238;52.278;21.056;2022-09-24T09:35:57;100547.80;;;21.00
67353;BMP180;54238;52.278;21.056;2022-09-24T09:41:32;100544.80;;;21.30
67353;BMP180;54238;52.278;21.056;2022-09-24T09:44:19;100543.20;;;21.58
67353;BMP180;54238;52.278;21.056;2022-09-24T09:47:03;100538.40;;;22.10
67353;BMP180;54238;52.278;21.056;2022-09-24T09:49:36;100541.00;;;22.40
67353;BMP180;54238;52.278;21.056;2022-09-24T09:52:15;100546.00;;;22.72
67353;BMP180;54238;52.278;21.056;2022-09-24T09:54:49;100546.40;;;23.08
67353;BMP180;54238;52.278;21.056;2022-09-24T09:57:24;100541.80;;;23.40
67353;BMP180;54238;52.278;21.056;2022-09-24T09:59:53;100546.60;;;23.60
67353;BMP180;54238;52.278;21.056;2022-09-24T10:02:32;100545.40;;;23.50
67353;BMP180;54238;52.278;21.056;2022-09-24T10:05:03;100550.00;;;23.60
67353;BMP180;54238;52.278;21.056;2022-09-24T10:07:31;100544.80;;;23.40
67353;BMP180;54238;52.278;21.056;2022-09-24T10:12:47;100546.40;;;23.40
67353;BMP180;54238;52.278;21.056;2022-09-24T10:15:21;100544.40;;;23.30
67353;BMP180;54238;52.278;21.056;2022-09-24T10:17:53;100545.60;;;23.08
67353;BMP180;54238;52.278;21.056;2022-09-24T10:20:26;100542.40;;;22.90
67353;BMP180;54238;52.278;21.056;2022-09-24T10:23:05;100538.80;;;23.00
67353;BMP180;54238;52.278;21.056;2022-09-24T10:25:39;100538.60;;;23.40
67353;BMP180;54238;52.278;21.056;2022-09-24T10:28:17;100541.80;;;23.80
67353;BMP180;54238;52.278;21.056;2022-09-24T10:31:15;100540.40;;;24.40
67353;BMP180;54238;52.278;21.056;2022-09-24T10:33:48;100541.00;;;24.70
67353;BMP180;54238;52.278;21.056;2022-09-24T10:36:27;100541.40;;;24.80
67353;BMP180;54238;52.278;21.056;2022-09-24T10:39:13;100543.40;;;24.90
67353;BMP180;54238;52.278;21.056;2022-09-24T10:41:52;100538.60;;;24.80
67353;BMP180;54238;52.278;21.056;2022-09-24T10:44:25;100532.00;;;24.70
67353;BMP180;54238;52.278;21.056;2022-09-24T10:47:26;100530.80;;;24.76
67353;BMP180;54238;52.278;21.056;2022-09-24T10:50:26;100528.60;;;24.94
67353;BMP180;54238;52.278;21.056;2022-09-24T10:53:06;100527.40;;;25.18
67353;BMP180;54238;52.278;21.056;2022-09-24T10:58:49;100534.40;;;25.30
67353;BMP180;54238;52.278;21.056;2022-09-24T11:02:06;100533.20;;;25.10
67353;BMP180;54238;52.278;21.056;2022-09-24T11:04:58;100532.00;;;24.70
67353;BMP180;54238;52.278;21.056;2022-09-24T11:07:54;100531.80;;;24.40
67353;BMP180;54238;52.278;21.056;2022-09-24T11:13:30;100530.40;;;23.94
67353;BMP180;54238;52.278;21.056;2022-09-24T11:16:24;100532.20;;;23.64
67353;BMP180;54238;52.278;21.056;2022-09-24T11:19:54;100525.60;;;23.20
67353;BMP180;54238;52.278;21.056;2022-09-24T11:25:33;100523.20;;;22.50
67353;BMP180;54238;52.278;21.056;2022-09-24T11:28:19;100519.00;;;22.40
67353;BMP180;54238;52.278;21.056;2022-09-24T11:37:58;100520.40;;;23.46
67353;BMP180;54238;52.278;21.056;2022-09-24T11:46:45;100516.20;;;22.02
67353;BMP180;54238;52.278;21.056;2022-09-24T11:52:23;100514.80;;;21.40
67353;BMP180;54238;52.278;21.056;2022-09-24T11:58:12;100513.80;;;21.00
67353;BMP180;54238;52.278;21.056;2022-09-24T12:00:56;100508.80;;;20.88
67353;BMP180;54238;52.278;21.056;2022-09-24T12:04:03;100510.00;;;20.72
67353;BMP180;54238;52.278;21.056;2022-09-24T12:06:57;100502.40;;;20.70
67353;BMP180;54238;52.278;21.056;2022-09-24T12:09:40;100498.20;;;20.60
67353;BMP180;54238;52.278;21.056;2022-09-24T12:12:21;100494.60;;;20.40
67353;BMP180;54238;52.278;21.056;2022-09-24T12:14:59;100490.00;;;20.38
67353;BMP180;54238;52.278;21.056;2022-09-24T12:17:41;100486.20;;;20.64
67353;BMP180;54238;52.278;21.056;2022-09-24T12:20:25;100481.00;;;21.36
67353;BMP180;54238;52.278;21.056;2022-09-24T12:23:07;100477.40;;;22.28
67353;BMP180;54238;52.278;21.056;2022-09-24T12:25:44;100477.60;;;23.36
67353;BMP180;54238;52.278;21.056;2022-09-24T12:28:16;100484.00;;;24.30
67353;BMP180;54238;52.278;21.056;2022-09-24T12:31:22;100482.60;;;25.24
67353;BMP180;54238;52.278;21.056;2022-09-24T12:37:24;100480.60;;;26.92
67353;BMP180;54238;52.278;21.056;2022-09-24T12:40:25;100479.40;;;27.52
67353;BMP180;54238;52.278;21.056;2022-09-24T12:43:04;100482.00;;;28.38
67353;BMP180;54238;52.278;21.056;2022-09-24T12:45:36;100483.60;;;28.94
67353;BMP180;54238;52.278;21.056;2022-09-24T12:48:16;100483.20;;;29.22
67353;BMP180;54238;52.278;21.056;2022-09-24T12:50:56;100477.20;;;29.44
67353;BMP180;54238;52.278;21.056;2022-09-24T12:53:33;100480.60;;;29.62
67353;BMP180;54238;52.278;21.056;2022-09-24T12:56:05;100480.20;;;29.70
67353;BMP180;54238;52.278;21.056;2022-09-24T12:58:44;100477.00;;;29.50
67353;BMP180;54238;52.278;21.056;2022-09-24T13:06:36;100484.00;;;28.46
67353;BMP180;54238;52.278;21.056;2022-09-24T13:14:57;100486.80;;;26.16
67353;BMP180;54238;52.278;21.056;2022-09-24T13:17:31;100479.40;;;25.62
67353;BMP180;54238;52.278;21.056;2022-09-24T13:20:22;100478.20;;;25.60
67353;BMP180;54238;52.278;21.056;2022-09-24T13:25:57;100473.40;;;25.40
67353;BMP180;54238;52.278;21.056;2022-09-24T13:28:30;100472.20;;;25.30
67353;BMP180;54238;52.278;21.056;2022-09-24T13:31:22;100468.60;;;25.34
67353;BMP180;54238;52.278;21.056;2022-09-24T13:34:13;100469.00;;;25.30
67353;BMP180;54238;52.278;21.056;2022-09-24T13:36:48;100470.00;;;25.20
67353;BMP180;54238;52.278;21.056;2022-09-24T13:42:32;100468.00;;;25.00
67353;BMP180;54238;52.278;21.056;2022-09-24T13:45:13;100464.00;;;24.90
67353;BMP180;54238;52.278;21.056;2022-09-24T13:47:57;100468.00;;;24.62
67353;BMP180;54238;52.278;21.056;2022-09-24T13:50:51;100466.00;;;24.38
67353;BMP180;54238;52.278;21.056;2022-09-24T13:53:33;100467.40;;;23.96
67353;BMP180;54238;52.278;21.056;2022-09-24T13:56:12;100469.60;;;23.60
67353;BMP180;54238;52.278;21.056;2022-09-24T13:58:45;100464.20;;;23.12
67353;BMP180;54238;52.278;21.056;2022-09-24T14:01:25;100467.40;;;22.64
67353;BMP180;54238;52.278;21.056;2022-09-24T14:03:57;100457.40;;;22.30
67353;BMP180;54238;52.278;21.056;2022-09-24T14:06:39;100457.60;;;22.00
67353;BMP180;54238;52.278;21.056;2022-09-24T14:12:10;100460.00;;;21.46
67353;BMP180;54238;52.278;21.056;2022-09-24T14:14:44;100458.80;;;21.20
67353;BMP180;54238;52.278;21.056;2022-09-24T14:17:14;100461.60;;;21.00
67353;BMP180;54238;52.278;21.056;2022-09-24T14:19:54;100453.80;;;20.86
67353;BMP180;54238;52.278;21.056;2022-09-24T14:22:30;100451.80;;;20.70
67353;BMP180;54238;52.278;21.056;2022-09-24T14:25:03;100450.80;;;20.50
67353;BMP180;54238;52.278;21.056;2022-09-24T14:27:42;100452.40;;;20.30
67353;BMP180;54238;52.278;21.056;2022-09-24T14:30:21;100450.20;;;20.20
67353;BMP180;54238;52.278;21.056;2022-09-24T14:33:02;100451.40;;;20.10
67353;BMP180;54238;52.278;21.056;2022-09-24T14:35:35;100445.60;;;19.94
67353;BMP180;54238;52.278;21.056;2022-09-24T14:38:25;100443.00;;;19.90
67353;BMP180;54238;52.278;21.056;2022-09-24T14:43:41;100449.00;;;19.80
67353;BMP180;54238;52.278;21.056;2022-09-24T14:48:45;100446.40;;;19.80
67353;BMP180;54238;52.278;21.056;2022-09-24T14:51:29;100443.40;;;19.90
67353;BMP180;54238;52.278;21.056;2022-09-24T14:54:37;100438.60;;;19.90
67353;BMP180;54238;52.278;21.056;2022-09-24T14:59:45;100431.80;;;20.14
67353;BMP180;54238;52.278;21.056;2022-09-24T15:04:56;100435.40;;;20.60
67353;BMP180;54238;52.278;21.056;2022-09-24T15:07:29;100433.20;;;20.70
67353;BMP180;54238;52.278;21.056;2022-09-24T15:10:03;100434.20;;;20.86
67353;BMP180;54238;52.278;21.056;2022-09-24T15:12:34;100435.80;;;21.00
67353;BMP180;54238;52.278;21.056;2022-09-24T15:15:23;100435.80;;;21.10
67353;BMP180;54238;52.278;21.056;2022-09-24T15:17:54;100434.80;;;21.00
67353;BMP180;54238;52.278;21.056;2022-09-24T15:20:23;100434.60;;;21.00
67353;BMP180;54238;52.278;21.056;2022-09-24T15:22:54;100437.40;;;21.02
67353;BMP180;54238;52.278;21.056;2022-09-24T15:25:26;100432.60;;;20.90
67353;BMP180;54238;52.278;21.056;2022-09-24T15:27:59;100436.80;;;20.70
67353;BMP180;54238;52.278;21.056;2022-09-24T15:30:28;100431.40;;;20.40
67353;BMP180;54238;52.278;21.056;2022-09-24T15:32:58;100429.20;;;20.20
67353;BMP180;54238;52.278;21.056;2022-09-24T15:35:27;100424.60;;;20.20
67353;BMP180;54238;52.278;21.056;2022-09-24T15:37:56;100429.80;;;20.20
67353;BMP180;54238;52.278;21.056;2022-09-24T15:40:28;100427.80;;;20.10
67353;BMP180;54238;52.278;21.056;2022-09-24T15:42:59;100426.20;;;19.92
67353;BMP180;54238;52.278;21.056;2022-09-24T15:45:26;100428.20;;;19.70
67353;BMP180;54238;52.278;21.056;2022-09-24T15:47:54;100430.60;;;19.50
67353;BMP180;54238;52.278;21.056;2022-09-24T15:50:22;100426.00;;;19.20
67353;BMP180;54238;52.278;21.056;2022-09-24T15:52:57;100425.40;;;19.00
67353;BMP180;54238;52.278;21.056;2022-09-24T15:55:24;100427.60;;;18.70
67353;BMP180;54238;52.278;21.056;2022-09-24T15:57:59;100427.60;;;18.46
67353;BMP180;54238;52.278;21.056;2022-09-24T16:00:27;100426.40;;;18.22
67353;BMP180;54238;52.278;21.056;2022-09-24T16:02:56;100428.80;;;18.08
67353;BMP180;54238;52.278;21.056;2022-09-24T16:05:26;100424.60;;;17.90
67353;BMP180;54238;52.278;21.056;2022-09-24T16:07:55;100423.20;;;17.74
67353;BMP180;54238;52.278;21.056;2022-09-24T16:10:24;100426.20;;;17.60
67353;BMP180;54238;52.278;21.056;2022-09-24T16:12:54;100421.00;;;17.50
67353;BMP180;54238;52.278;21.056;2022-09-24T16:15:25;100426.00;;;17.30
67353;BMP180;54238;52.278;21.056;2022-09-24T16:17:54;100427.20;;;17.20
67353;BMP180;54238;52.278;21.056;2022-09-24T16:20:21;100426.40;;;17.06
67353;BMP180;54238;52.278;21.056;2022-09-24T16:22:49;100430.40;;;16.90